CYYC

Calgary International Airport

ICAO Code CYYC
IATA Code YYC
Name Calgary International Airport
Location Calgary, Alberta, CA
Elevation 3557 Feet / 1084.2 Meters
Latitude 51.11389923
Longitude -114.01999664
METAR CYYC 080700Z 33021G32KT 15SM FEW014 OVC019 05/01 A2979 RMK SF2SC6 SLP111
Extra information Display Charts and CFS
Display NOTAMS
Runway Length Width Surface Elevation
08 6200 ft 150 ft ASP 3531 ft
11 8000 ft 200 ft ASP 3547 ft
17L 14000 ft 200 ft Concrete 3606 ft
17R 12675 ft 200 ft ASP 3556 ft
26 6200 ft 150 ft ASP 3557 ft
29 8000 ft 200 ft ASP 3542 ft
35R 14000 ft 200 ft Concrete 3577 ft
35L 12675 ft 200 ft ASP 3543 ft